Time;durP1;ratioP1;P1;durP2;ratioP2;P2;SDS_P1;SDS_P2;PMS_P1;PMS_P2;Temp;Humidity;BMP_temperature;BMP_pressure;BME280_temperature;BME280_humidity;BME280_pressure;Samples;Min_cycle;Max_cycle;Signal;HPM_P1;HPM_P2
2021/06/13 00:01:24;;;;;;;2.08;0.63;;;;;;;;;;5073357;28;20433;-68
2021/06/13 00:03:49;;;;;;;4.40;0.55;;;;;;;;;;5074504;28;20084;-67
2021/06/13 00:06:15;;;;;;;2.75;0.50;;;;;;;;;;5080205;28;20028;-67
2021/06/13 00:08:40;;;;;;;2.65;0.50;;;;;;;;;;5069924;28;20016;-67
2021/06/13 00:11:05;;;;;;;1.98;0.38;;;;;;;;;;5074582;28;20522;-67
2021/06/13 00:13:30;;;;;;;2.85;0.30;;;;;;;;;;5074131;28;20028;-67
2021/06/13 00:15:56;;;;;;;3.28;0.93;;;;;;;;;;5074704;28;20016;-67
2021/06/13 00:18:21;;;;;;;3.15;0.80;;;;;;;;;;5070508;28;20380;-66
2021/06/13 00:20:47;;;;;;;6.88;0.60;;;;;;;;;;5072413;28;20024;-66
2021/06/13 00:23:13;;;;;;;4.40;0.57;;;;;;;;;;5073681;28;20024;-67
2021/06/13 00:25:38;;;;;;;1.40;0.40;;;;;;;;;;5072801;28;20550;-66
2021/06/13 00:28:03;;;;;;;3.20;0.55;;;;;;;;;;5070142;28;20030;-67
2021/06/13 00:30:29;;;;;;;2.78;0.75;;;;;;;;;;5072805;28;20021;-67
2021/06/13 00:32:54;;;;;;;3.47;0.98;;;;;;;;;;5072599;28;20024;-67
2021/06/13 00:35:20;;;;;;;3.95;0.70;;;;;;;;;;5074232;28;20541;-67
2021/06/13 00:37:46;;;;;;;5.40;0.77;;;;;;;;;;5069679;28;20039;-67
2021/06/13 00:40:11;;;;;;;4.93;0.98;;;;;;;;;;5073734;28;20504;-66
2021/06/13 00:42:37;;;;;;;3.03;0.50;;;;;;;;;;5072580;28;20020;-67
2021/06/13 00:45:03;;;;;;;6.97;0.73;;;;;;;;;;5073531;28;20020;-67
2021/06/13 00:47:28;;;;;;;7.45;1.55;;;;;;;;;;5070925;28;20392;-67
2021/06/13 00:49:55;;;;;;;4.70;0.80;;;;;;;;;;5072619;28;20028;-67
2021/06/13 00:52:21;;;;;;;2.95;0.82;;;;;;;;;;5073454;28;20021;-67
2021/06/13 00:54:46;;;;;;;3.85;1.17;;;;;;;;;;5072739;28;20025;-67
2021/06/13 00:57:11;;;;;;;6.53;1.48;;;;;;;;;;5078958;28;20024;-67
2021/06/13 00:59:36;;;;;;;2.47;0.88;;;;;;;;;;5075086;28;20032;-67
2021/06/13 01:02:02;;;;;;;5.82;1.15;;;;;;;;;;5073525;28;20101;-67
2021/06/13 01:04:27;;;;;;;5.10;1.13;;;;;;;;;;5072267;28;20020;-68
2021/06/13 01:07:03;;;;;;;3.22;0.80;;;;;;;;;;5083315;28;20162;-68
2021/06/13 01:09:31;;;;;;;4.50;0.90;;;;;;;;;;5073653;28;20032;-68
2021/06/13 01:12:11;;;;;;;4.15;1.27;;;;;;;;;;5073613;28;20012;-68
2021/06/13 01:15:02;;;;;;;2.85;1.20;;;;;;;;;;5065803;28;20101;-68
2021/06/13 01:17:32;;;;;;;4.63;1.88;;;;;;;;;;5070114;28;20054;-68
2021/06/13 01:20:00;;;;;;;5.72;0.93;;;;;;;;;;5073409;28;20016;-67
2021/06/13 01:22:25;;;;;;;6.53;1.70;;;;;;;;;;5075495;28;20027;-67
2021/06/13 01:25:06;;;;;;;3.67;1.25;;;;;;;;;;5077016;28;20036;-67
2021/06/13 01:27:57;;;;;;;6.05;1.33;;;;;;;;;;5068585;28;20391;-68
2021/06/13 01:30:26;;;;;;;4.13;1.02;;;;;;;;;;5063757;28;20077;-67
2021/06/13 01:32:52;;;;;;;3.70;0.80;;;;;;;;;;5072664;28;20047;-68
2021/06/13 01:35:20;;;;;;;4.53;1.20;;;;;;;;;;5072588;28;20075;-67
2021/06/13 01:37:49;;;;;;;4.68;1.20;;;;;;;;;;5069682;28;20080;-67
2021/06/13 01:40:15;;;;;;;7.80;1.48;;;;;;;;;;5071470;28;20138;-68
2021/06/13 01:42:41;;;;;;;2.05;0.65;;;;;;;;;;5070899;28;20468;-68
2021/06/13 01:45:10;;;;;;;5.55;1.00;;;;;;;;;;5072429;28;20047;-68
2021/06/13 01:47:36;;;;;;;6.65;1.50;;;;;;;;;;5069496;28;20024;-67
2021/06/13 01:50:03;;;;;;;4.25;1.27;;;;;;;;;;5072442;28;20020;-67
2021/06/13 01:52:30;;;;;;;2.40;0.80;;;;;;;;;;5072354;28;20492;-67
2021/06/13 01:54:57;;;;;;;8.30;1.33;;;;;;;;;;5072470;28;20480;-67
2021/06/13 01:57:23;;;;;;;6.50;1.75;;;;;;;;;;5068070;28;20050;-68
2021/06/13 01:59:48;;;;;;;6.38;1.75;;;;;;;;;;5072329;28;20030;-67
2021/06/13 02:02:14;;;;;;;2.88;1.05;;;;;;;;;;5072471;28;20093;-68
2021/06/13 02:04:40;;;;;;;3.58;1.60;;;;;;;;;;5072201;28;20032;-68
2021/06/13 02:07:06;;;;;;;4.82;1.40;;;;;;;;;;5070568;28;20017;-67
2021/06/13 02:09:32;;;;;;;6.65;1.50;;;;;;;;;;5072554;28;20016;-68
2021/06/13 02:12:00;;;;;;;6.30;1.58;;;;;;;;;;5070994;28;20074;-67
2021/06/13 02:14:25;;;;;;;3.70;1.63;;;;;;;;;;5072081;28;20028;-68
2021/06/13 02:16:51;;;;;;;5.15;1.60;;;;;;;;;;5070030;28;20020;-68
2021/06/13 02:19:17;;;;;;;3.85;1.40;;;;;;;;;;5070289;28;20016;-67
2021/06/13 02:21:43;;;;;;;4.75;1.98;;;;;;;;;;5070984;28;20162;-67
2021/06/13 02:24:09;;;;;;;6.07;1.10;;;;;;;;;;5071320;28;20101;-68
2021/06/13 02:26:34;;;;;;;3.70;1.30;;;;;;;;;;5071297;28;20520;-67
2021/06/13 02:28:59;;;;;;;3.70;1.60;;;;;;;;;;5070383;28;20016;-67
2021/06/13 02:31:29;;;;;;;7.07;2.00;;;;;;;;;;5072135;28;20028;-67
2021/06/13 02:33:55;;;;;;;3.45;1.52;;;;;;;;;;5070556;28;20025;-67
2021/06/13 02:36:21;;;;;;;3.55;0.77;;;;;;;;;;5071660;28;20095;-67
2021/06/13 02:38:46;;;;;;;5.53;1.77;;;;;;;;;;5068586;28;20020;-67
2021/06/13 02:41:12;;;;;;;8.68;2.05;;;;;;;;;;5070014;28;20469;-67
2021/06/13 02:43:37;;;;;;;6.65;1.75;;;;;;;;;;5071723;28;20146;-67
2021/06/13 02:46:02;;;;;;;1.90;0.75;;;;;;;;;;5071677;28;20558;-67
2021/06/13 02:48:27;;;;;;;6.97;1.88;;;;;;;;;;5067257;28;20372;-67
2021/06/13 02:50:53;;;;;;;5.15;1.10;;;;;;;;;;5070297;28;20423;-67
2021/06/13 02:53:42;;;;;;;3.53;1.63;;;;;;;;;;5071858;28;20027;-67
2021/06/13 02:56:07;;;;;;;7.88;1.80;;;;;;;;;;5054473;28;20021;-67
2021/06/13 02:58:39;;;;;;;6.38;2.40;;;;;;;;;;5072362;28;20091;-67
2021/06/13 03:01:05;;;;;;;4.38;1.88;;;;;;;;;;5071555;28;20048;-67
2021/06/13 03:03:32;;;;;;;4.50;1.45;;;;;;;;;;5071588;28;21011;-67
2021/06/13 03:05:57;;;;;;;6.47;1.48;;;;;;;;;;5085262;28;20020;-67
2021/06/13 03:08:23;;;;;;;4.93;1.42;;;;;;;;;;5067481;28;20039;-67
2021/06/13 03:10:51;;;;;;;5.15;1.50;;;;;;;;;;5078010;28;20012;-67
2021/06/13 03:13:17;;;;;;;6.63;1.63;;;;;;;;;;5071314;28;20019;-67
2021/06/13 03:15:42;;;;;;;5.30;1.70;;;;;;;;;;5071003;28;20016;-67
2021/06/13 03:18:08;;;;;;;5.30;2.13;;;;;;;;;;5067681;28;20055;-67
2021/06/13 03:20:34;;;;;;;4.00;2.17;;;;;;;;;;5071121;28;20373;-67
2021/06/13 03:22:59;;;;;;;4.05;1.55;;;;;;;;;;5071573;28;20024;-67
2021/06/13 03:25:25;;;;;;;6.63;2.10;;;;;;;;;;5070214;28;20535;-67
2021/06/13 03:27:52;;;;;;;11.57;2.30;;;;;;;;;;5068250;28;20029;-67
2021/06/13 03:30:18;;;;;;;5.85;2.10;;;;;;;;;;5072347;28;20476;-67
2021/06/13 03:32:43;;;;;;;5.20;1.55;;;;;;;;;;5073572;28;20017;-67
2021/06/13 03:35:08;;;;;;;3.70;1.75;;;;;;;;;;5073378;28;20024;-68
2021/06/13 03:37:35;;;;;;;9.68;2.40;;;;;;;;;;5072343;28;20150;-67
2021/06/13 03:40:00;;;;;;;4.85;2.05;;;;;;;;;;5074946;28;20048;-67
2021/06/13 03:42:26;;;;;;;4.70;2.00;;;;;;;;;;5073701;28;20456;-68
2021/06/13 03:44:52;;;;;;;5.25;2.20;;;;;;;;;;5073514;28;20024;-67
2021/06/13 03:47:18;;;;;;;5.00;1.52;;;;;;;;;;5070778;28;20021;-68
2021/06/13 03:49:44;;;;;;;7.35;1.77;;;;;;;;;;5074525;28;20030;-68
2021/06/13 03:52:10;;;;;;;5.85;1.80;;;;;;;;;;5073691;28;20020;-67
2021/06/13 03:54:36;;;;;;;7.18;2.17;;;;;;;;;;5074563;28;20016;-67
2021/06/13 03:57:04;;;;;;;5.95;2.53;;;;;;;;;;5071273;28;20044;-67
2021/06/13 03:59:30;;;;;;;7.15;2.40;;;;;;;;;;5074689;28;20036;-67
2021/06/13 04:01:58;;;;;;;4.97;1.67;;;;;;;;;;5075019;28;20027;-67
2021/06/13 04:04:24;;;;;;;4.55;1.90;;;;;;;;;;5073371;28;20450;-67
2021/06/13 04:06:50;;;;;;;4.57;1.98;;;;;;;;;;5072590;28;20451;-67
2021/06/13 04:09:16;;;;;;;6.20;1.98;;;;;;;;;;5080102;28;20021;-67
2021/06/13 04:11:41;;;;;;;4.63;1.95;;;;;;;;;;5074396;28;20023;-67
2021/06/13 04:14:09;;;;;;;7.32;2.22;;;;;;;;;;5074752;28;20016;-67
2021/06/13 04:16:34;;;;;;;6.65;2.05;;;;;;;;;;5073658;28;20025;-67
2021/06/13 04:19:01;;;;;;;10.13;2.35;;;;;;;;;;5070932;28;20040;-67
2021/06/13 04:21:27;;;;;;;6.40;2.30;;;;;;;;;;5107357;28;20027;-67
2021/06/13 04:23:52;;;;;;;4.28;1.42;;;;;;;;;;5074459;28;20020;-67
2021/06/13 04:26:18;;;;;;;3.67;0.90;;;;;;;;;;5106296;28;20399;-67
2021/06/13 04:28:44;;;;;;;5.25;2.50;;;;;;;;;;5071041;28;20048;-67
2021/06/13 04:31:14;;;;;;;6.60;1.83;;;;;;;;;;5074088;28;20484;-67
2021/06/13 04:33:44;;;;;;;5.45;2.45;;;;;;;;;;5074035;28;20021;-67
2021/06/13 04:36:09;;;;;;;6.20;2.10;;;;;;;;;;5083767;28;20020;-67
2021/06/13 04:38:35;;;;;;;4.10;1.52;;;;;;;;;;5091341;28;20019;-67
2021/06/13 04:41:01;;;;;;;7.03;2.08;;;;;;;;;;5092857;28;20071;-66
2021/06/13 04:43:26;;;;;;;4.22;1.25;;;;;;;;;;5094214;28;20069;-67
2021/06/13 04:45:51;;;;;;;8.27;2.45;;;;;;;;;;5076460;28;20052;-67
2021/06/13 04:48:19;;;;;;;5.53;1.42;;;;;;;;;;5069539;28;20032;-67
2021/06/13 04:50:44;;;;;;;6.38;1.67;;;;;;;;;;5073495;28;20091;-67
2021/06/13 04:53:30;;;;;;;9.70;2.65;;;;;;;;;;5074039;28;20047;-67
2021/06/13 04:55:56;;;;;;;2.70;0.95;;;;;;;;;;5073050;28;20029;-67
2021/06/13 04:58:25;;;;;;;5.30;1.65;;;;;;;;;;5069523;28;20036;-67
2021/06/13 05:00:51;;;;;;;7.28;1.92;;;;;;;;;;5073246;28;20081;-67
2021/06/13 05:03:17;;;;;;;7.05;1.63;;;;;;;;;;5073826;28;20021;-67
2021/06/13 05:05:42;;;;;;;6.45;2.13;;;;;;;;;;5076691;28;20128;-67
2021/06/13 05:08:07;;;;;;;6.13;2.10;;;;;;;;;;5069895;28;20040;-67
2021/06/13 05:10:32;;;;;;;4.15;1.35;;;;;;;;;;5073057;28;20050;-67
2021/06/13 05:12:58;;;;;;;6.15;2.13;;;;;;;;;;5072153;28;20024;-67
2021/06/13 05:15:23;;;;;;;7.50;2.10;;;;;;;;;;5105823;28;20353;-67
2021/06/13 05:17:49;;;;;;;4.72;1.67;;;;;;;;;;5070423;28;20155;-67
2021/06/13 05:20:14;;;;;;;6.22;1.92;;;;;;;;;;5072949;28;20429;-67
2021/06/13 05:22:56;;;;;;;4.57;1.60;;;;;;;;;;5105684;28;20491;-66
2021/06/13 05:25:22;;;;;;;6.45;1.95;;;;;;;;;;5071522;28;20021;-67
2021/06/13 05:27:47;;;;;;;4.93;1.45;;;;;;;;;;5069604;28;20021;-67
2021/06/13 05:30:13;;;;;;;6.22;1.75;;;;;;;;;;5071779;28;20032;-67
2021/06/13 05:32:38;;;;;;;6.20;1.95;;;;;;;;;;5071574;28;20020;-67
2021/06/13 05:35:04;;;;;;;7.78;2.00;;;;;;;;;;5072711;28;20457;-67
2021/06/13 05:37:29;;;;;;;9.82;2.20;;;;;;;;;;5088749;28;20020;-67
2021/06/13 05:39:54;;;;;;;5.47;1.38;;;;;;;;;;5084205;28;20064;-67
2021/06/13 05:42:19;;;;;;;6.43;1.85;;;;;;;;;;5072542;28;20056;-67
2021/06/13 05:44:45;;;;;;;6.85;1.90;;;;;;;;;;5072634;28;20045;-67
2021/06/13 05:47:10;;;;;;;4.32;1.15;;;;;;;;;;5068031;28;20290;-67
2021/06/13 05:49:35;;;;;;;3.80;1.20;;;;;;;;;;5070728;28;20021;-67
2021/06/13 05:52:00;;;;;;;7.68;1.33;;;;;;;;;;5070907;28;20050;-67
2021/06/13 05:54:25;;;;;;;2.28;0.95;;;;;;;;;;5071844;28;20021;-67
2021/06/13 05:56:51;;;;;;;3.85;1.23;;;;;;;;;;5069515;28;20013;-67
2021/06/13 05:59:16;;;;;;;7.57;2.17;;;;;;;;;;5072964;28;20472;-67
2021/06/13 06:01:43;;;;;;;2.80;0.90;;;;;;;;;;5071724;28;20426;-67
2021/06/13 06:04:08;;;;;;;4.80;1.70;;;;;;;;;;5070752;28;20446;-67
2021/06/13 06:06:33;;;;;;;2.38;0.77;;;;;;;;;;5067196;28;20023;-67
2021/06/13 06:08:59;;;;;;;6.40;1.58;;;;;;;;;;5070105;28;20029;-67
2021/06/13 06:11:25;;;;;;;3.42;1.38;;;;;;;;;;5071124;28;20111;-67
2021/06/13 06:13:53;;;;;;;6.10;1.58;;;;;;;;;;5071747;28;20028;-67
2021/06/13 06:16:19;;;;;;;8.90;1.73;;;;;;;;;;5069756;28;20016;-67
2021/06/13 06:18:45;;;;;;;7.85;1.50;;;;;;;;;;5065839;28;20020;-66
2021/06/13 06:21:11;;;;;;;9.30;1.23;;;;;;;;;;5103516;28;20111;-67
2021/06/13 06:23:36;;;;;;;6.03;1.20;;;;;;;;;;5075803;28;20483;-67
2021/06/13 06:26:01;;;;;;;3.25;1.00;;;;;;;;;;5076401;28;20047;-67
2021/06/13 06:28:27;;;;;;;8.05;1.83;;;;;;;;;;5064698;28;20535;-67
2021/06/13 06:30:52;;;;;;;4.95;1.33;;;;;;;;;;5073100;28;20039;-67
2021/06/13 06:33:17;;;;;;;3.53;0.75;;;;;;;;;;5078296;28;20029;-67
2021/06/13 06:35:42;;;;;;;4.18;1.55;;;;;;;;;;5069841;28;20365;-67
2021/06/13 06:38:08;;;;;;;4.57;1.48;;;;;;;;;;5069142;28;20032;-67
2021/06/13 06:40:33;;;;;;;4.30;1.13;;;;;;;;;;5067683;28;20128;-67
2021/06/13 06:42:59;;;;;;;3.13;0.60;;;;;;;;;;5072260;28;20111;-67
2021/06/13 06:45:24;;;;;;;4.78;0.93;;;;;;;;;;5071984;28;20074;-67
2021/06/13 06:47:49;;;;;;;4.63;0.90;;;;;;;;;;5068821;28;20036;-67
2021/06/13 06:50:15;;;;;;;5.18;1.33;;;;;;;;;;5068088;28;20025;-67
2021/06/13 06:52:41;;;;;;;6.38;1.45;;;;;;;;;;5069233;28;20016;-66
2021/06/13 06:55:07;;;;;;;5.22;0.88;;;;;;;;;;5074284;28;20103;-67
2021/06/13 06:57:32;;;;;;;4.88;1.35;;;;;;;;;;5066935;28;20103;-66
2021/06/13 06:59:57;;;;;;;4.25;1.30;;;;;;;;;;5072741;28;20100;-67
2021/06/13 07:02:23;;;;;;;4.65;1.25;;;;;;;;;;5072010;28;20083;-66
2021/06/13 07:04:48;;;;;;;5.03;1.45;;;;;;;;;;5072187;28;20172;-66
2021/06/13 07:07:13;;;;;;;5.30;1.42;;;;;;;;;;5077476;28;20023;-67
2021/06/13 07:09:38;;;;;;;8.05;1.80;;;;;;;;;;5075307;28;20024;-67
2021/06/13 07:12:04;;;;;;;5.35;1.17;;;;;;;;;;5074022;28;20028;-66
2021/06/13 07:14:29;;;;;;;2.80;0.80;;;;;;;;;;5074724;28;20008;-65
2021/06/13 07:16:54;;;;;;;5.88;1.33;;;;;;;;;;5069459;28;20082;-66
2021/06/13 07:19:20;;;;;;;5.65;1.42;;;;;;;;;;5074249;28;20021;-66
2021/06/13 07:21:45;;;;;;;7.20;1.92;;;;;;;;;;5075628;28;20017;-66
2021/06/13 07:24:10;;;;;;;4.82;1.42;;;;;;;;;;5075393;28;20081;-66
2021/06/13 07:26:35;;;;;;;6.60;1.60;;;;;;;;;;5074033;28;20376;-66
2021/06/13 07:29:01;;;;;;;5.32;1.10;;;;;;;;;;5073140;28;20108;-67
2021/06/13 07:31:26;;;;;;;8.30;1.13;;;;;;;;;;5074006;28;20101;-67
2021/06/13 07:33:51;;;;;;;2.35;0.82;;;;;;;;;;5070248;28;20016;-67
2021/06/13 07:36:16;;;;;;;4.90;1.35;;;;;;;;;;5078104;28;20032;-66
2021/06/13 07:38:42;;;;;;;4.35;0.70;;;;;;;;;;5062776;28;20021;-66
2021/06/13 07:41:07;;;;;;;3.25;1.10;;;;;;;;;;5067360;28;20530;-66
2021/06/13 07:43:32;;;;;;;6.55;1.63;;;;;;;;;;5066221;28;20031;-67
2021/06/13 07:45:57;;;;;;;6.25;1.55;;;;;;;;;;5066851;28;20115;-66
2021/06/13 07:48:23;;;;;;;7.38;1.17;;;;;;;;;;5066229;28;20047;-67
2021/06/13 07:50:49;;;;;;;5.10;1.23;;;;;;;;;;5070559;28;20108;-66
2021/06/13 07:53:14;;;;;;;6.47;1.30;;;;;;;;;;5075297;28;20112;-66
2021/06/13 07:55:40;;;;;;;3.67;1.05;;;;;;;;;;5091647;28;20098;-66
2021/06/13 07:58:05;;;;;;;2.92;0.70;;;;;;;;;;5073120;28;20400;-66
2021/06/13 08:00:30;;;;;;;3.92;0.73;;;;;;;;;;5075050;28;20428;-65
2021/06/13 08:02:56;;;;;;;3.22;0.80;;;;;;;;;;5075520;28;20372;-65
2021/06/13 08:05:28;;;;;;;6.20;1.60;;;;;;;;;;5080497;28;20075;-66
2021/06/13 08:07:54;;;;;;;5.50;1.55;;;;;;;;;;5074612;28;20024;-67
2021/06/13 08:10:19;;;;;;;8.35;1.20;;;;;;;;;;5096661;28;20063;-66
2021/06/13 08:12:44;;;;;;;7.72;1.88;;;;;;;;;;5078182;28;20040;-68
2021/06/13 08:15:10;;;;;;;4.00;0.98;;;;;;;;;;5078506;28;20071;-66
2021/06/13 08:17:35;;;;;;;3.75;1.40;;;;;;;;;;5073028;28;20570;-66
2021/06/13 08:20:01;;;;;;;4.05;1.25;;;;;;;;;;5077694;28;20499;-66
2021/06/13 08:22:27;;;;;;;4.75;1.00;;;;;;;;;;5069106;28;20042;-67
2021/06/13 08:24:52;;;;;;;4.35;1.00;;;;;;;;;;5066071;28;20552;-65
2021/06/13 08:27:17;;;;;;;4.22;1.48;;;;;;;;;;5064405;28;20048;-66
2021/06/13 08:29:43;;;;;;;7.13;1.50;;;;;;;;;;5077708;28;20029;-66
2021/06/13 08:32:08;;;;;;;3.00;1.35;;;;;;;;;;5066186;28;20123;-66
2021/06/13 08:34:33;;;;;;;2.95;0.85;;;;;;;;;;5065778;28;20020;-66
2021/06/13 08:36:59;;;;;;;5.22;1.42;;;;;;;;;;5065254;28;20024;-66
2021/06/13 08:39:24;;;;;;;8.25;1.30;;;;;;;;;;5063872;28;20392;-67
2021/06/13 08:41:49;;;;;;;3.65;1.35;;;;;;;;;;5064092;28;20113;-67
2021/06/13 08:44:15;;;;;;;5.22;1.30;;;;;;;;;;5065094;28;20205;-67
2021/06/13 08:46:41;;;;;;;3.92;1.08;;;;;;;;;;5064575;28;20103;-67
2021/06/13 08:49:07;;;;;;;7.07;1.63;;;;;;;;;;5063156;28;20028;-67
2021/06/13 08:51:33;;;;;;;1.98;0.70;;;;;;;;;;5070445;28;20013;-67
2021/06/13 08:53:58;;;;;;;2.53;0.70;;;;;;;;;;5068536;28;20086;-67
2021/06/13 08:56:24;;;;;;;3.10;0.60;;;;;;;;;;5065063;28;20040;-66
2021/06/13 08:58:49;;;;;;;2.78;0.80;;;;;;;;;;5059661;28;20029;-66
2021/06/13 09:01:15;;;;;;;4.10;0.88;;;;;;;;;;5065583;28;20025;-66
2021/06/13 09:03:41;;;;;;;4.85;1.00;;;;;;;;;;5065990;28;20028;-67
2021/06/13 09:06:06;;;;;;;6.10;0.60;;;;;;;;;;5071071;28;20016;-67
2021/06/13 09:08:36;;;;;;;6.30;1.15;;;;;;;;;;5064213;28;20479;-66
2021/06/13 09:11:01;;;;;;;4.22;0.52;;;;;;;;;;5063392;28;20028;-67
2021/06/13 09:13:29;;;;;;;5.15;0.80;;;;;;;;;;5058762;28;20020;-66
2021/06/13 09:15:56;;;;;;;3.30;1.08;;;;;;;;;;5101419;28;20036;-67
2021/06/13 09:18:30;;;;;;;6.40;1.58;;;;;;;;;;5074791;28;20039;-67
2021/06/13 09:20:56;;;;;;;4.60;0.80;;;;;;;;;;5074127;28;20024;-67
2021/06/13 09:23:21;;;;;;;4.57;1.23;;;;;;;;;;5075553;28;20323;-67
2021/06/13 09:25:48;;;;;;;1.83;0.60;;;;;;;;;;5077488;28;20020;-67
2021/06/13 09:28:17;;;;;;;8.00;1.45;;;;;;;;;;5074005;28;20016;-67
2021/06/13 09:30:44;;;;;;;4.32;1.20;;;;;;;;;;5076334;28;20491;-67
2021/06/13 09:33:14;;;;;;;4.18;1.40;;;;;;;;;;5071385;28;20021;-66
2021/06/13 09:35:41;;;;;;;7.35;1.42;;;;;;;;;;5076126;28;20012;-67
2021/06/13 09:38:07;;;;;;;3.60;1.08;;;;;;;;;;5076974;28;20024;-66
2021/06/13 09:40:32;;;;;;;6.47;1.83;;;;;;;;;;5079836;28;20051;-66
2021/06/13 09:42:59;;;;;;;6.68;1.73;;;;;;;;;;5088596;28;20138;-67
2021/06/13 09:45:24;;;;;;;4.97;1.42;;;;;;;;;;5092197;28;20022;-66
2021/06/13 09:47:59;;;;;;;2.88;0.45;;;;;;;;;;5088153;28;20081;-66
2021/06/13 09:50:40;;;;;;;3.67;1.38;;;;;;;;;;5090913;28;20023;-67
2021/06/13 09:53:18;;;;;;;4.95;1.13;;;;;;;;;;5089594;28;20024;-66
2021/06/13 09:55:43;;;;;;;4.85;1.50;;;;;;;;;;5063660;28;20023;-67
2021/06/13 09:58:09;;;;;;;4.30;2.10;;;;;;;;;;5100964;28;20025;-67
2021/06/13 10:00:34;;;;;;;3.25;1.10;;;;;;;;;;5078558;28;20065;-67
2021/06/13 10:03:18;;;;;;;6.13;1.30;;;;;;;;;;5072809;28;20020;-67
2021/06/13 10:05:56;;;;;;;5.30;2.03;;;;;;;;;;5087430;28;20024;-66
2021/06/13 10:08:22;;;;;;;8.27;1.58;;;;;;;;;;5075832;28;20111;-66
2021/06/13 10:10:47;;;;;;;6.03;1.63;;;;;;;;;;5071492;28;20409;-67
2021/06/13 10:13:13;;;;;;;6.55;1.75;;;;;;;;;;5065497;28;20519;-67
2021/06/13 10:15:39;;;;;;;5.78;1.15;;;;;;;;;;5090149;28;20043;-67
2021/06/13 10:18:11;;;;;;;5.78;1.08;;;;;;;;;;5088036;28;20463;-67
2021/06/13 10:20:36;;;;;;;4.63;0.85;;;;;;;;;;5092297;28;20078;-67
2021/06/13 10:23:01;;;;;;;4.38;0.98;;;;;;;;;;5107365;27;20479;-67
2021/06/13 10:25:27;;;;;;;5.45;0.98;;;;;;;;;;5076425;28;20467;-67
2021/06/13 10:27:52;;;;;;;4.57;1.08;;;;;;;;;;5069009;28;20107;-66
2021/06/13 10:30:17;;;;;;;2.78;0.68;;;;;;;;;;5102551;28;20472;-67
2021/06/13 10:32:43;;;;;;;5.32;1.13;;;;;;;;;;5072262;28;20061;-66
2021/06/13 10:35:09;;;;;;;3.53;0.90;;;;;;;;;;5074167;28;20031;-66
2021/06/13 10:37:34;;;;;;;2.80;0.77;;;;;;;;;;5081031;28;20023;-67
2021/06/13 10:40:01;;;;;;;2.88;0.40;;;;;;;;;;5089557;28;20115;-66
2021/06/13 10:42:26;;;;;;;6.25;1.00;;;;;;;;;;5073714;28;20024;-66
2021/06/13 10:44:52;;;;;;;3.70;0.60;;;;;;;;;;5102215;28;20112;-66
2021/06/13 10:47:18;;;;;;;3.13;0.70;;;;;;;;;;5067560;28;20017;-67
2021/06/13 10:49:56;;;;;;;5.10;0.77;;;;;;;;;;5072086;28;20036;-67
2021/06/13 10:52:21;;;;;;;4.38;0.70;;;;;;;;;;5077463;28;20040;-67
2021/06/13 10:54:50;;;;;;;2.70;0.80;;;;;;;;;;5079599;28;20074;-67
2021/06/13 10:57:15;;;;;;;4.20;0.82;;;;;;;;;;5066412;28;20047;-67
2021/06/13 10:59:41;;;;;;;2.47;0.50;;;;;;;;;;5074893;28;20471;-67
2021/06/13 11:02:11;;;;;;;3.53;0.73;;;;;;;;;;5075175;28;20391;-67
2021/06/13 11:04:39;;;;;;;4.28;0.60;;;;;;;;;;5074728;28;20441;-67
2021/06/13 11:07:04;;;;;;;4.45;0.75;;;;;;;;;;5072217;28;20020;-67
2021/06/13 11:09:29;;;;;;;3.42;1.02;;;;;;;;;;5073214;28;20399;-66
2021/06/13 11:11:55;;;;;;;4.15;0.75;;;;;;;;;;5071070;28;20450;-67
2021/06/13 11:14:24;;;;;;;2.30;0.85;;;;;;;;;;5069585;28;20467;-67
2021/06/13 11:16:50;;;;;;;2.22;0.30;;;;;;;;;;5088237;28;20285;-66
2021/06/13 11:19:25;;;;;;;3.60;0.77;;;;;;;;;;5065783;28;20032;-66
2021/06/13 11:22:10;;;;;;;4.43;0.73;;;;;;;;;;5067868;28;20043;-66
2021/06/13 11:24:49;;;;;;;2.03;0.55;;;;;;;;;;5072191;28;20510;-66
2021/06/13 11:27:14;;;;;;;4.53;0.70;;;;;;;;;;5072351;28;20281;-66
2021/06/13 11:29:52;;;;;;;1.48;0.52;;;;;;;;;;5082686;28;20030;-67
2021/06/13 11:32:37;;;;;;;2.92;0.57;;;;;;;;;;5067327;28;20021;-65
2021/06/13 11:35:21;;;;;;;3.13;0.90;;;;;;;;;;5078131;28;20027;-65
2021/06/13 11:37:47;;;;;;;3.10;0.50;;;;;;;;;;5076182;28;20024;-65
2021/06/13 11:40:28;;;;;;;3.88;0.68;;;;;;;;;;5084607;28;20063;-65
2021/06/13 11:43:13;;;;;;;2.60;0.52;;;;;;;;;;5079130;28;20494;-65
2021/06/13 11:45:49;;;;;;;4.60;0.70;;;;;;;;;;5071703;28;20447;-65
2021/06/13 11:48:19;;;;;;;3.55;0.80;;;;;;;;;;5072655;28;20345;-65
2021/06/13 11:50:57;;;;;;;3.60;1.08;;;;;;;;;;5080107;28;20467;-66
2021/06/13 11:53:43;;;;;;;2.70;0.98;;;;;;;;;;5092225;28;20020;-66
2021/06/13 11:56:08;;;;;;;3.17;1.15;;;;;;;;;;5079542;28;20036;-66
2021/06/13 11:58:34;;;;;;;3.30;0.73;;;;;;;;;;5074550;28;20100;-65
2021/06/13 12:01:00;;;;;;;4.40;1.15;;;;;;;;;;5073314;28;20029;-66
2021/06/13 12:03:26;;;;;;;3.53;0.90;;;;;;;;;;5071107;28;20024;-66
2021/06/13 12:06:00;;;;;;;3.15;0.57;;;;;;;;;;5073334;28;20024;-66
2021/06/13 12:08:25;;;;;;;3.30;0.90;;;;;;;;;;5095519;28;20496;-65
2021/06/13 12:10:51;;;;;;;4.75;0.85;;;;;;;;;;5077152;28;20111;-65
2021/06/13 12:13:16;;;;;;;3.60;1.02;;;;;;;;;;5084450;28;20028;-65
2021/06/13 12:15:41;;;;;;;2.00;0.70;;;;;;;;;;5090858;28;20103;-67
2021/06/13 12:18:14;;;;;;;2.38;0.50;;;;;;;;;;5077150;28;20024;-67
2021/06/13 12:20:39;;;;;;;2.45;0.80;;;;;;;;;;5088972;28;20051;-65
2021/06/13 12:23:07;;;;;;;3.45;0.88;;;;;;;;;;5091973;28;20498;-66
2021/06/13 12:28:16;;;;;;;3.13;0.80;;;;;;;;;;5075547;28;20166;-66
2021/06/13 12:30:43;;;;;;;3.72;0.80;;;;;;;;;;5079317;28;20095;-65
2021/06/13 12:33:13;;;;;;;4.40;0.77;;;;;;;;;;5070357;28;20502;-66
2021/06/13 12:35:39;;;;;;;3.83;0.68;;;;;;;;;;5072295;28;20090;-66
2021/06/13 12:38:06;;;;;;;3.60;1.10;;;;;;;;;;5069902;28;20047;-66
2021/06/13 12:40:35;;;;;;;2.97;0.65;;;;;;;;;;5074650;28;20487;-66
2021/06/13 12:43:00;;;;;;;1.88;0.60;;;;;;;;;;5074014;28;20024;-66
2021/06/13 12:45:25;;;;;;;1.98;0.40;;;;;;;;;;5072569;28;20388;-66
2021/06/13 12:47:55;;;;;;;4.15;0.73;;;;;;;;;;5070998;28;20027;-66
2021/06/13 12:50:28;;;;;;;2.92;1.00;;;;;;;;;;5072216;28;20502;-66
2021/06/13 12:52:55;;;;;;;4.65;0.65;;;;;;;;;;5076604;28;20028;-66
2021/06/13 12:55:20;;;;;;;4.32;0.82;;;;;;;;;;5072159;28;20031;-66
2021/06/13 12:57:47;;;;;;;5.05;0.93;;;;;;;;;;5069256;28;20100;-66
2021/06/13 13:00:13;;;;;;;3.63;0.90;;;;;;;;;;5073806;28;20096;-66
2021/06/13 13:02:38;;;;;;;3.10;0.52;;;;;;;;;;5073142;28;20091;-66
2021/06/13 13:05:12;;;;;;;2.90;0.77;;;;;;;;;;5071675;28;20016;-67
2021/06/13 13:07:40;;;;;;;3.70;0.95;;;;;;;;;;5088389;28;20502;-67
2021/06/13 13:10:11;;;;;;;2.80;0.55;;;;;;;;;;5093607;28;20052;-67
2021/06/13 13:12:37;;;;;;;2.97;0.75;;;;;;;;;;5083073;28;20476;-67
2021/06/13 13:15:07;;;;;;;3.85;0.70;;;;;;;;;;5070929;28;20020;-68
2021/06/13 13:17:32;;;;;;;4.90;0.90;;;;;;;;;;5069768;28;20048;-67
2021/06/13 13:19:58;;;;;;;3.17;0.80;;;;;;;;;;5073341;28;20044;-69
2021/06/13 13:22:24;;;;;;;4.72;0.90;;;;;;;;;;5073077;28;20468;-69
2021/06/13 13:24:49;;;;;;;2.78;0.93;;;;;;;;;;5071825;28;20544;-70
2021/06/13 13:27:17;;;;;;;2.28;0.90;;;;;;;;;;5068082;28;20103;-70
2021/06/13 13:29:44;;;;;;;2.55;1.20;;;;;;;;;;5072569;28;20017;-69
2021/06/13 13:32:10;;;;;;;2.88;1.00;;;;;;;;;;5071402;28;20491;-68
2021/06/13 13:34:35;;;;;;;4.82;1.20;;;;;;;;;;5072962;28;20017;-67
2021/06/13 13:37:09;;;;;;;2.85;1.10;;;;;;;;;;5071169;28;20027;-68
2021/06/13 13:39:34;;;;;;;2.95;0.98;;;;;;;;;;5077360;28;20191;-69
2021/06/13 13:42:00;;;;;;;3.90;1.00;;;;;;;;;;5071296;28;20123;-68
2021/06/13 13:44:27;;;;;;;3.05;1.23;;;;;;;;;;5072520;28;20532;-69
2021/06/13 13:46:59;;;;;;;5.53;0.70;;;;;;;;;;5069653;28;20113;-68
2021/06/13 13:49:24;;;;;;;4.43;1.00;;;;;;;;;;5053064;28;20028;-68
2021/06/13 13:51:51;;;;;;;2.90;1.00;;;;;;;;;;5070179;28;20021;-68
2021/06/13 13:54:35;;;;;;;3.55;0.88;;;;;;;;;;5072036;28;20017;-64
2021/06/13 13:57:03;;;;;;;2.03;1.02;;;;;;;;;;5069588;28;20070;-65
2021/06/13 13:59:29;;;;;;;3.13;0.75;;;;;;;;;;5071443;28;20016;-66
2021/06/13 14:01:55;;;;;;;3.03;1.20;;;;;;;;;;5072369;28;20027;-67
2021/06/13 14:04:22;;;;;;;3.47;0.80;;;;;;;;;;5070871;28;20024;-66
2021/06/13 14:06:47;;;;;;;3.20;0.73;;;;;;;;;;5081019;28;20107;-66
2021/06/13 14:09:13;;;;;;;2.05;0.60;;;;;;;;;;5090622;28;20104;-64
2021/06/13 14:11:39;;;;;;;2.67;0.95;;;;;;;;;;5092452;28;20503;-65
2021/06/13 14:14:04;;;;;;;3.80;1.27;;;;;;;;;;5070747;28;20031;-66
2021/06/13 14:16:29;;;;;;;3.42;1.20;;;;;;;;;;5070419;28;20082;-66
2021/06/13 14:18:54;;;;;;;3.83;1.45;;;;;;;;;;5068262;28;20016;-66
2021/06/13 14:21:20;;;;;;;2.60;0.98;;;;;;;;;;5072209;28;20028;-67
2021/06/13 14:23:46;;;;;;;1.83;0.70;;;;;;;;;;5072303;28;20085;-66
2021/06/13 14:26:11;;;;;;;2.85;0.90;;;;;;;;;;5071873;28;20077;-67
2021/06/13 14:28:36;;;;;;;2.85;0.95;;;;;;;;;;5099248;28;20021;-66
2021/06/13 14:31:01;;;;;;;4.20;1.00;;;;;;;;;;5071461;28;20024;-66
2021/06/13 14:33:27;;;;;;;4.28;1.05;;;;;;;;;;5070659;28;20128;-67
2021/06/13 14:35:52;;;;;;;4.10;1.00;;;;;;;;;;5070667;28;20025;-67
2021/06/13 14:38:17;;;;;;;3.33;0.87;;;;;;;;;;5070970;28;20380;-66
2021/06/13 14:40:43;;;;;;;2.92;0.93;;;;;;;;;;5083213;28;20287;-66
2021/06/13 14:43:09;;;;;;;5.05;1.00;;;;;;;;;;5104238;28;20107;-66
2021/06/13 14:45:36;;;;;;;2.88;1.00;;;;;;;;;;5070160;28;20391;-67